Saturday, September 22, 2018, 9:10 AM EDT
Back to Local

KBLM, Belmar-farmingdale

Location: Farmingdale, NJ, United States Lat: 40.183
Local Time: 9:10 AM EDT (13:10 GMT) Lon: -74.133
Time Zone: US/Eastern Elev: 157 ft

Show me the last for .
Show Decoded

2018-09-22 08:56 METAR KBLM 221256Z AUTO 31013KT 10SM BKN031 23/17 A3008 RMK AO2 SLP189 T02280167
                 =
2018-09-22 07:56 METAR KBLM 221156Z AUTO 29007KT 10SM FEW055 23/21 A3006 RMK AO2 SLP181 60000
                 T02280211 10228 20217 53024 =
2018-09-22 06:56 METAR KBLM 221056Z AUTO 25005KT 10SM FEW012 OVC120 22/21 A3003 RMK AO2 RAB23E36
                 SLP171 P0000 T02220206 =
2018-09-22 06:43 METAR KBLM 221043Z AUTO 25005KT 10SM BKN012 OVC110 22/21 A3002 RMK AO2 RAB23E36
                 P0000 =
2018-09-22 05:56 METAR KBLM 220956Z AUTO 24006KT 10SM FEW120 22/21 A3001 RMK AO2 SLP165 T02220206
                 =
2018-09-22 04:56 METAR KBLM 220856Z AUTO 23009KT 10SM SCT017 23/21 A2999 RMK AO2 SLP156 T02280206
                 55001 =
2018-09-22 04:44 METAR KBLM 220844Z AUTO 24008KT 10SM BKN017 23/21 A2998 RMK AO2 =
2018-09-22 03:56 METAR KBLM 220756Z AUTO 24009KT 10SM SCT021 22/20 A2998 RMK AO2 SLP155 T02220200
                 =
2018-09-22 02:53 METAR KBLM 220653Z AUTO 23010KT 10SM BKN021 22/20 A2999 RMK AO2 =
2018-09-22 01:56 METAR KBLM 220556Z AUTO 21012G18KT 10SM CLR 22/19 A2998 RMK AO2 SLP154 T02220194
                 10222 20206 56023 =
2018-09-22 01:30 METAR KBLM 220530Z AUTO 21012G18KT 10SM FEW029 22/19 A2998 RMK AO2 =
2018-09-22 00:56 METAR KBLM 220456Z AUTO 21012G20KT 10SM OVC029 22/19 A2999 RMK AO2 SLP160
                 T02220194 402390178 =
2018-09-22 00:13 METAR KBLM 220413Z AUTO 20010KT 10SM OVC029 22/19 A3001 RMK AO2 =
2018-09-21 23:56 METAR KBLM 220356Z AUTO 20011G18KT 10SM OVC031 21/19 A3002 RMK AO2 SLP169
                 T02110194 =
2018-09-21 22:56 METAR KBLM 220256Z AUTO 19008KT 10SM BKN031 21/19 A3004 RMK AO2 SLP177 T02110189
                 50000 =
2018-09-21 21:56 METAR KBLM 220156Z AUTO 20007KT 10SM CLR 21/18 A3006 RMK AO2 SLP181 T02110183 =
2018-09-21 20:56 METAR KBLM 220056Z AUTO 19006KT 10SM CLR 21/18 A3005 RMK AO2 SLP179 T02110178 =
2018-09-21 19:56 METAR KBLM 212356Z AUTO 18008KT 10SM CLR 22/18 A3004 RMK AO2 SLP177 T02170183
                 10239 20217 58019 =
2018-09-21 18:56 METAR KBLM 212256Z AUTO 17006KT 10SM FEW036 22/18 A3006 RMK AO2 SLP182 T02170183
                 =
2018-09-21 17:56 METAR KBLM 212156Z AUTO 17008G17KT 10SM SCT025 OVC036 23/18 A3009 RMK AO2 SLP192
                 T02280183 =
2018-09-21 17:49 METAR KBLM 212149Z AUTO 17007G17KT 10SM SCT025 OVC036 23/18 A3009 RMK AO2 =
2018-09-21 17:36 METAR KBLM 212136Z AUTO 18009KT 10SM BKN025 OVC036 23/18 A3009 RMK AO2 =
2018-09-21 16:56 METAR KBLM 212056Z AUTO 18008KT 10SM SCT027 BKN038 OVC046 23/19 A3010 RMK AO2
                 SLP196 T02330189 58026 =
2018-09-21 16:45 METAR KBLM 212045Z AUTO 16007KT 10SM SCT025 OVC038 23/19 A3011 RMK AO2 =
2018-09-21 15:56 METAR KBLM 211956Z AUTO 17008G15KT 10SM OVC027 23/18 A3013 RMK AO2 SLP205
                 T02280183 =
2018-09-21 14:56 METAR KBLM 211856Z AUTO 19007KT 10SM BKN027 BKN047 OVC060 23/18 A3015 RMK AO2
                 SLP213 T02330178 =
2018-09-21 13:56 METAR KBLM 211756Z AUTO 17008G16KT 10SM BKN023 BKN028 OVC050 22/18 A3018 RMK AO2
                 SLP222 T02220178 10228 20189 56025 =
2018-09-21 12:56 METAR KBLM 211656Z AUTO 17009KT 10SM FEW021 BKN026 OVC042 22/17 A3020 RMK AO2
                 SLP231 T02220172 =
2018-09-21 12:18 METAR KBLM 211618Z AUTO 18010G15KT 10SM FEW021 BKN044 OVC065 22/17 A3022 RMK AO2
                 =
2018-09-21 11:56 METAR KBLM 211556Z AUTO 15009KT 10SM BKN022 OVC046 22/17 A3022 RMK AO2 SLP237
                 T02170172 =
2018-09-21 11:42 METAR KBLM 211542Z AUTO 15007KT 10SM BKN024 OVC046 21/17 A3023 RMK AO2 =
2018-09-21 11:10 METAR KBLM 211510Z AUTO 17006KT 10SM FEW022 OVC050 21/17 A3024 RMK AO2 =
2018-09-21 10:56 METAR KBLM 211456Z AUTO 15008KT 10SM BKN022 OVC050 21/17 A3025 RMK AO2 SLP248
                 T02110167 58008 =
2018-09-21 10:12 METAR KBLM 211412Z AUTO 14009KT 10SM BKN024 OVC050 21/16 A3026 RMK AO2 =
2018-09-21 09:56 METAR KBLM 211356Z AUTO 15008KT 10SM SCT022 OVC050 21/17 A3026 RMK AO2 SLP250
                 T02110167 =

Support USWX by starting your Amazon purchase here.